Time;durP1;ratioP1;P1;durP2;ratioP2;P2;SDS_P1;SDS_P2;PMS_P1;PMS_P2;Temp;Humidity;BMP_temperature;BMP_pressure;BME280_temperature;BME280_humidity;BME280_pressure;Samples;Min_cycle;Max_cycle;Signal;HPM_P1;HPM_P2
2023/12/19 00:00:06;;;;;;;35.60;27.77;;;;;;;1.65;71.19;96146.97;4964264;28;20231;-72
2023/12/19 00:02:31;;;;;;;34.57;28.43;;;;;;;1.66;71.27;96144.31;4979831;28;20220;-73
2023/12/19 00:04:57;;;;;;;35.60;27.53;;;;;;;1.64;71.30;96148.72;4958223;28;20213;-72
2023/12/19 00:07:22;;;;;;;39.37;29.90;;;;;;;1.73;70.93;96145.69;4982122;28;20280;-72
2023/12/19 00:09:49;;;;;;;36.27;28.23;;;;;;;1.80;70.42;96155.81;4986970;28;20227;-72
2023/12/19 00:12:14;;;;;;;30.67;25.83;;;;;;;1.82;70.51;96151.38;4983285;28;20226;-72
2023/12/19 00:14:39;;;;;;;33.57;25.53;;;;;;;1.79;70.57;96146.34;4986490;28;20223;-72
2023/12/19 00:17:05;;;;;;;34.40;27.93;;;;;;;1.72;70.64;96156.16;4986834;28;20183;-72
2023/12/19 00:19:30;;;;;;;34.87;28.23;;;;;;;1.85;70.63;96151.25;4985836;28;20184;-72
2023/12/19 00:21:56;;;;;;;35.07;26.80;;;;;;;1.65;71.09;96146.97;4971364;28;20216;-72
2023/12/19 00:24:22;;;;;;;36.97;28.20;;;;;;;1.81;70.89;96160.91;4978667;28;20222;-72
2023/12/19 00:26:47;;;;;;;36.63;28.17;;;;;;;1.75;70.28;96163.81;4980453;28;20239;-72
2023/12/19 00:29:13;;;;;;;36.53;28.50;;;;;;;1.68;70.66;96158.03;4973581;28;20287;-72
2023/12/19 00:31:38;;;;;;;37.90;27.73;;;;;;;1.61;70.67;96168.78;4986299;28;20191;-72
2023/12/19 00:34:04;;;;;;;34.27;27.83;;;;;;;1.66;70.57;96162.47;4984188;28;20221;-72
2023/12/19 00:36:29;;;;;;;34.87;28.17;;;;;;;1.76;70.44;96173.25;4982537;28;20227;-72
2023/12/19 00:38:54;;;;;;;36.87;28.53;;;;;;;1.63;71.04;96166.94;4990975;28;20223;-72
2023/12/19 00:41:20;;;;;;;35.97;27.77;;;;;;;1.61;70.88;96161.84;4988384;28;20329;-71
2023/12/19 00:43:46;;;;;;;35.50;28.20;;;;;;;1.67;70.93;96169.31;4988514;28;20175;-71
2023/12/19 00:46:12;;;;;;;35.27;27.60;;;;;;;1.38;71.00;96165.44;4988438;28;20226;-71
2023/12/19 00:48:38;;;;;;;39.43;31.13;;;;;;;1.23;71.80;96166.97;4988332;28;20284;-72
2023/12/19 00:51:13;;;;;;;35.73;30.17;;;;;;;1.42;71.73;96169.59;4995576;28;20222;-72
2023/12/19 00:53:39;;;;;;;35.93;28.30;;;;;;;1.42;71.70;96163.56;4990360;28;20272;-72
2023/12/19 00:56:13;;;;;;;36.97;30.13;;;;;;;1.38;71.15;96156.84;4990004;28;20273;-72
2023/12/19 00:58:39;;;;;;;35.97;29.13;;;;;;;1.45;70.98;96150.47;4977779;28;20220;-72
2023/12/19 01:01:06;;;;;;;36.13;28.40;;;;;;;1.48;70.97;96153.75;4973024;28;20223;-72
2023/12/19 01:03:32;;;;;;;34.53;27.23;;;;;;;1.51;70.62;96156.22;4963359;28;20229;-72
2023/12/19 01:05:59;;;;;;;33.23;25.40;;;;;;;1.41;71.40;96144.56;4998635;28;20228;-72
2023/12/19 01:08:25;;;;;;;33.43;26.67;;;;;;;1.56;70.63;96148.25;4989452;28;20234;-71
2023/12/19 01:10:50;;;;;;;31.17;23.80;;;;;;;1.53;70.55;96145.78;4987662;28;20262;-71
2023/12/19 01:13:16;;;;;;;33.67;26.23;;;;;;;1.43;70.93;96142.75;4986943;28;20309;-71
2023/12/19 01:15:41;;;;;;;33.03;25.30;;;;;;;1.47;71.17;96141.72;4988955;28;20290;-71
2023/12/19 01:18:07;;;;;;;31.97;25.50;;;;;;;1.49;70.67;96129.50;4990396;28;20223;-71
2023/12/19 01:20:32;;;;;;;32.50;25.60;;;;;;;1.36;70.69;96130.13;4991190;28;20237;-71
2023/12/19 01:22:57;;;;;;;30.47;25.67;;;;;;;1.42;70.75;96129.88;4989134;28;20183;-71
2023/12/19 01:25:23;;;;;;;30.73;23.77;;;;;;;1.46;70.38;96129.66;4986840;28;20223;-71
2023/12/19 01:27:48;;;;;;;26.27;22.30;;;;;;;1.37;70.28;96127.50;4990087;28;20230;-70
2023/12/19 01:30:14;;;;;;;28.83;22.50;;;;;;;1.25;70.74;96133.22;4993085;28;20219;-71
2023/12/19 01:32:39;;;;;;;28.77;22.00;;;;;;;1.34;70.77;96135.41;4986281;28;20222;-71
2023/12/19 01:35:05;;;;;;;30.80;22.03;;;;;;;1.42;70.77;96135.06;4991514;28;20186;-71
2023/12/19 01:37:31;;;;;;;27.27;22.07;;;;;;;1.35;70.52;96128.47;4984992;28;20234;-71
2023/12/19 01:39:56;;;;;;;28.03;22.53;;;;;;;1.35;70.00;96120.69;4990212;28;20231;-71
2023/12/19 01:42:23;;;;;;;26.33;20.73;;;;;;;1.34;70.26;96130.22;4989425;28;20289;-71
2023/12/19 01:45:08;;;;;;;27.57;21.10;;;;;;;1.38;70.64;96139.53;4986853;28;20257;-71
2023/12/19 01:47:33;;;;;;;30.17;23.07;;;;;;;1.21;70.32;96129.91;4972322;28;20264;-71
2023/12/19 01:49:59;;;;;;;28.43;22.37;;;;;;;1.10;70.94;96119.19;4978337;28;20266;-71
2023/12/19 01:52:25;;;;;;;28.53;21.17;;;;;;;1.22;70.46;96129.00;4981239;28;20223;-71
2023/12/19 01:54:51;;;;;;;38.00;30.30;;;;;;;1.18;71.52;96119.69;4971388;28;20231;-71
2023/12/19 01:57:17;;;;;;;32.27;26.23;;;;;;;1.32;71.83;96125.09;4982977;28;20215;-70
2023/12/19 01:59:42;;;;;;;27.43;21.50;;;;;;;1.22;70.90;96116.03;4983166;28;20231;-71
2023/12/19 02:02:08;;;;;;;27.80;20.83;;;;;;;1.20;70.45;96110.09;4973906;28;20183;-71
2023/12/19 02:04:33;;;;;;;25.23;18.90;;;;;;;1.25;70.50;96113.31;4974786;28;20183;-72
2023/12/19 02:06:59;;;;;;;25.63;21.13;;;;;;;1.09;70.51;96112.31;4988019;28;20254;-71
2023/12/19 02:09:24;;;;;;;27.03;20.37;;;;;;;1.17;70.05;96117.16;4977224;28;20227;-71
2023/12/19 02:11:50;;;;;;;27.70;21.13;;;;;;;1.27;69.93;96111.50;4968716;28;20220;-72
2023/12/19 02:14:15;;;;;;;27.20;21.37;;;;;;;1.16;70.35;96116.31;4987920;28;20191;-72
2023/12/19 02:16:40;;;;;;;28.57;22.07;;;;;;;1.10;70.34;96117.44;4989688;28;20179;-72
2023/12/19 02:19:06;;;;;;;24.57;20.70;;;;;;;1.10;69.73;96114.84;4973041;28;20250;-72
2023/12/19 02:21:32;;;;;;;28.90;21.03;;;;;;;1.17;69.51;96109.38;4980283;28;20303;-72
2023/12/19 02:23:58;;;;;;;25.43;21.33;;;;;;;1.13;69.62;96110.44;4976851;28;20243;-72
2023/12/19 02:26:24;;;;;;;27.77;21.93;;;;;;;1.16;70.02;96112.91;4966184;28;20200;-71
2023/12/19 02:28:52;;;;;;;28.90;23.60;;;;;;;1.21;69.62;96113.53;4984543;28;20184;-71
2023/12/19 02:31:19;;;;;;;27.23;22.83;;;;;;;1.05;69.72;96110.78;4988474;28;20330;-71
2023/12/19 02:33:45;;;;;;;28.97;23.13;;;;;;;1.16;70.20;96108.56;4971370;28;20230;-70
2023/12/19 02:36:10;;;;;;;28.43;24.20;;;;;;;1.22;69.81;96113.47;4972221;28;20224;-70
2023/12/19 02:38:36;;;;;;;30.50;22.07;;;;;;;1.06;70.17;96102.94;4976802;28;20222;-70
2023/12/19 02:41:02;;;;;;;31.97;24.57;;;;;;;0.96;70.40;96109.41;4989463;28;20199;-70
2023/12/19 02:43:28;;;;;;;32.23;25.73;;;;;;;0.93;70.63;96111.31;4992010;28;20214;-70
2023/12/19 02:45:53;;;;;;;31.03;24.73;;;;;;;0.92;70.69;96107.03;4969236;28;20235;-70
2023/12/19 02:48:19;;;;;;;32.33;25.50;;;;;;;1.04;70.27;96104.78;4976277;28;20325;-70
2023/12/19 02:50:44;;;;;;;31.80;25.43;;;;;;;1.09;70.03;96102.78;4980570;28;20279;-71
2023/12/19 02:53:10;;;;;;;32.90;24.80;;;;;;;1.04;70.07;96096.13;4974219;28;20192;-71
2023/12/19 02:55:35;;;;;;;30.17;24.37;;;;;;;1.02;70.37;96090.19;4967599;28;20186;-71
2023/12/19 02:58:01;;;;;;;28.83;24.10;;;;;;;1.06;70.36;96096.91;4985499;28;20241;-71
2023/12/19 03:00:26;;;;;;;31.67;24.97;;;;;;;1.03;70.39;96099.63;4989842;28;20238;-71
2023/12/19 03:02:51;;;;;;;29.90;25.00;;;;;;;1.02;70.68;96092.78;4979176;28;20220;-71
2023/12/19 03:05:18;;;;;;;31.00;25.60;;;;;;;0.91;70.90;96092.41;4970136;28;20239;-72
2023/12/19 03:07:44;;;;;;;31.83;25.33;;;;;;;1.01;70.50;96091.09;4987707;28;20234;-72
2023/12/19 03:10:09;;;;;;;32.40;25.00;;;;;;;1.00;70.64;96094.59;4986880;28;20306;-71
2023/12/19 03:12:35;;;;;;;30.50;22.67;;;;;;;0.95;70.51;96094.78;4986766;28;20227;-71
2023/12/19 03:15:02;;;;;;;31.70;23.10;;;;;;;0.92;70.42;96100.13;4987723;28;20226;-71
2023/12/19 03:17:29;;;;;;;34.00;25.47;;;;;;;0.85;70.74;96091.75;4994168;28;20227;-71
2023/12/19 03:19:54;;;;;;;32.47;26.23;;;;;;;0.93;70.30;96094.00;4984597;28;20193;-71
2023/12/19 03:22:19;;;;;;;30.33;25.80;;;;;;;0.88;70.38;96101.13;4983507;28;20310;-71
2023/12/19 03:24:45;;;;;;;32.07;23.93;;;;;;;0.89;70.47;96100.25;4977362;28;20232;-71
2023/12/19 03:27:10;;;;;;;30.87;25.57;;;;;;;0.61;71.37;96093.66;4979916;28;20229;-71
2023/12/19 03:29:36;;;;;;;32.87;24.93;;;;;;;0.65;71.04;96095.22;4983092;28;20233;-71
2023/12/19 03:32:01;;;;;;;34.27;25.23;;;;;;;0.73;70.65;96105.25;4964257;28;20188;-71
2023/12/19 03:34:27;;;;;;;31.80;26.23;;;;;;;0.79;70.78;96096.38;4990154;28;20227;-72
2023/12/19 03:36:52;;;;;;;32.03;24.77;;;;;;;0.67;71.13;96100.34;4983646;28;20259;-71
2023/12/19 03:39:18;;;;;;;31.07;25.20;;;;;;;0.71;70.73;96095.84;4989830;28;20241;-71
2023/12/19 03:41:43;;;;;;;29.97;25.73;;;;;;;0.74;70.79;96093.97;4977311;28;20286;-71
2023/12/19 03:44:08;;;;;;;31.57;25.27;;;;;;;0.73;70.62;96084.53;4962334;28;20196;-71
2023/12/19 03:46:34;;;;;;;30.47;25.67;;;;;;;0.74;70.32;96090.53;4984254;28;20207;-71
2023/12/19 03:48:59;;;;;;;30.73;23.97;;;;;;;0.66;70.64;96090.88;4987685;28;20230;-70
2023/12/19 03:51:25;;;;;;;34.17;25.27;;;;;;;0.68;70.52;96088.22;4980214;28;20231;-70
2023/12/19 03:53:50;;;;;;;32.87;26.70;;;;;;;0.66;70.40;96083.09;4981828;28;20277;-70
2023/12/19 03:56:16;;;;;;;33.70;27.07;;;;;;;0.76;70.47;96084.41;4985715;28;20188;-71
2023/12/19 03:58:41;;;;;;;34.37;26.90;;;;;;;0.72;70.60;96074.22;4990326;28;20255;-71
2023/12/19 04:01:07;;;;;;;31.23;25.87;;;;;;;0.62;70.35;96079.81;4986216;28;20223;-71
2023/12/19 04:03:32;;;;;;;37.33;28.23;;;;;;;0.70;70.07;96074.31;4986251;28;20224;-70
2023/12/19 04:05:58;;;;;;;36.17;28.63;;;;;;;0.65;70.19;96060.72;4977329;28;20236;-70
2023/12/19 04:08:23;;;;;;;44.80;33.07;;;;;;;0.71;69.74;96057.03;4964516;28;20211;-70
2023/12/19 04:10:49;;;;;;;39.93;31.10;;;;;;;0.73;69.91;96063.81;4990037;28;20197;-72
2023/12/19 04:13:14;;;;;;;42.20;34.57;;;;;;;0.68;69.93;96059.75;4993619;28;20235;-72
2023/12/19 04:15:39;;;;;;;50.73;39.33;;;;;;;0.70;70.32;96063.97;4977190;28;20249;-71
2023/12/19 04:18:05;;;;;;;55.80;39.17;;;;;;;0.49;70.71;96068.31;4975789;28;20230;-71
2023/12/19 04:20:30;;;;;;;49.97;38.23;;;;;;;0.51;70.63;96073.41;4991350;28;20226;-71
2023/12/19 04:22:56;;;;;;;51.53;40.57;;;;;;;0.39;71.17;96069.59;4999882;28;20277;-72
2023/12/19 04:25:21;;;;;;;48.50;38.83;;;;;;;0.26;71.32;96066.66;4992131;28;20235;-71
2023/12/19 04:27:46;;;;;;;49.50;38.47;;;;;;;0.37;71.33;96072.22;4989167;28;20238;-72
2023/12/19 04:30:12;;;;;;;51.03;39.83;;;;;;;0.48;70.78;96073.53;4991225;28;20225;-72
2023/12/19 04:32:37;;;;;;;50.73;39.40;;;;;;;0.56;70.79;96079.22;4979851;28;20237;-72
2023/12/19 04:35:04;;;;;;;52.73;40.17;;;;;;;0.53;70.85;96080.19;4999074;28;20190;-71
2023/12/19 04:37:29;;;;;;;56.67;44.20;;;;;;;0.54;70.35;96083.66;4995962;28;20262;-72
2023/12/19 04:39:54;;;;;;;50.23;39.77;;;;;;;0.45;70.88;96087.44;4975825;28;20310;-72
2023/12/19 04:42:20;;;;;;;52.77;41.20;;;;;;;0.48;70.34;96083.88;4985723;28;20277;-72
2023/12/19 04:44:46;;;;;;;51.27;40.63;;;;;;;0.49;70.52;96086.41;4979844;28;20237;-70
2023/12/19 04:47:12;;;;;;;53.27;41.40;;;;;;;0.61;70.25;96090.22;4995826;28;20210;-71
2023/12/19 04:49:39;;;;;;;56.23;42.87;;;;;;;0.47;70.69;96097.72;4991443;28;20183;-71
2023/12/19 04:52:04;;;;;;;56.07;43.37;;;;;;;0.51;70.43;96099.28;4999446;28;20337;-72
2023/12/19 04:54:30;;;;;;;56.87;46.10;;;;;;;0.50;70.39;96088.09;4983718;28;20342;-71
2023/12/19 04:56:56;;;;;;;60.37;43.50;;;;;;;0.49;70.25;96090.75;4981260;28;20233;-71
2023/12/19 04:59:21;;;;;;;53.53;42.50;;;;;;;0.21;70.71;96097.91;4988473;28;20187;-69
2023/12/19 05:01:46;;;;;;;54.00;41.57;;;;;;;0.25;70.75;96106.38;4991204;28;20180;-72
2023/12/19 05:04:12;;;;;;;56.50;42.57;;;;;;;0.26;70.58;96107.22;4992275;28;20238;-68
2023/12/19 05:06:38;;;;;;;52.00;40.23;;;;;;;0.27;70.33;96107.16;4977309;28;20239;-72
2023/12/19 05:09:03;;;;;;;50.17;39.50;;;;;;;0.37;70.48;96113.63;4987702;28;20254;-74
2023/12/19 05:11:28;;;;;;;50.50;39.53;;;;;;;0.44;70.26;96112.47;4993616;28;20223;-74
2023/12/19 05:13:54;;;;;;;51.03;39.37;;;;;;;0.36;70.61;96105.94;4995112;28;20255;-74
2023/12/19 05:16:19;;;;;;;63.60;46.27;;;;;;;0.29;71.60;96101.91;4971581;28;20219;-73
2023/12/19 05:18:46;;;;;;;55.07;41.23;;;;;;;0.33;72.00;96108.66;4990906;28;20252;-73
2023/12/19 05:21:12;;;;;;;51.33;39.17;;;;;;;0.28;71.25;96098.50;4986046;28;20227;-72
2023/12/19 05:23:38;;;;;;;51.77;37.63;;;;;;;0.15;71.37;96102.47;4982803;28;20239;-73
2023/12/19 05:26:07;;;;;;;50.63;36.37;;;;;;;0.29;71.23;96104.50;4994038;28;20204;-73
2023/12/19 05:28:37;;;;;;;44.20;33.47;;;;;;;0.39;70.62;96098.06;4977917;28;20230;-72
2023/12/19 05:31:03;;;;;;;47.23;37.37;;;;;;;0.35;70.61;96110.28;4986913;28;20288;-73
2023/12/19 05:33:29;;;;;;;49.50;38.80;;;;;;;0.34;70.32;96090.47;4990465;28;20234;-76
2023/12/19 05:35:55;;;;;;;51.27;40.53;;;;;;;0.40;70.62;96087.66;4987280;28;20223;-71
2023/12/19 05:38:21;;;;;;;54.67;42.37;;;;;;;0.46;70.02;96099.50;4984598;28;20187;-74
2023/12/19 05:40:47;;;;;;;67.17;47.70;;;;;;;0.42;70.00;96101.34;4987842;28;20237;-74
2023/12/19 05:43:14;;;;;;;60.53;44.23;;;;;;;0.32;70.35;96110.41;4986945;28;20227;-70
2023/12/19 05:45:40;;;;;;;59.57;46.87;;;;;;;0.41;70.50;96111.78;4971370;28;20251;-72
2023/12/19 05:48:06;;;;;;;64.43;49.90;;;;;;;0.36;70.29;96104.19;4965501;28;20246;-70
2023/12/19 05:50:31;;;;;;;64.80;46.60;;;;;;;0.40;70.43;96110.06;4995542;28;20222;-70
2023/12/19 05:52:56;;;;;;;65.80;44.30;;;;;;;0.39;70.63;96108.41;4989609;28;20186;-70
2023/12/19 05:55:22;;;;;;;64.43;48.40;;;;;;;0.52;70.56;96112.16;4971269;28;20212;-68
2023/12/19 05:57:48;;;;;;;63.73;46.10;;;;;;;0.48;70.64;96115.78;4984105;28;20271;-70
2023/12/19 06:00:15;;;;;;;59.63;45.87;;;;;;;0.33;70.59;96112.09;4981317;28;20231;-70
2023/12/19 06:02:41;;;;;;;58.87;44.83;;;;;;;0.15;70.82;96100.72;4978527;28;20231;-69
2023/12/19 06:05:07;;;;;;;60.40;44.07;;;;;;;0.28;70.49;96097.66;4985330;28;20254;-70
2023/12/19 06:07:40;;;;;;;55.90;44.27;;;;;;;0.40;70.28;96097.13;4989765;28;20198;-69
2023/12/19 06:10:15;;;;;;;56.80;42.50;;;;;;;0.33;70.43;96095.72;4992368;28;20230;-68
2023/12/19 06:12:41;;;;;;;54.10;41.50;;;;;;;0.35;70.57;96105.09;4972384;28;20223;-69
2023/12/19 06:15:12;;;;;;;47.47;38.97;;;;;;;0.43;70.28;96102.22;4973663;28;20226;-71
2023/12/19 06:17:47;;;;;;;50.70;39.40;;;;;;;0.48;70.11;96104.59;4983849;28;20231;-70
2023/12/19 06:20:13;;;;;;;42.27;34.77;;;;;;;0.31;70.63;96100.94;4991357;28;20229;-77
2023/12/19 06:22:41;;;;;;;51.70;36.13;;;;;;;0.35;70.74;96099.09;4989803;28;20190;-73
2023/12/19 06:25:07;;;;;;;56.37;43.57;;;;;;;0.40;70.56;96085.06;4986660;28;20243;-77
2023/12/19 06:27:34;;;;;;;60.63;47.03;;;;;;;0.58;70.61;96100.72;4979343;28;20283;-77
2023/12/19 06:30:00;;;;;;;61.83;46.03;;;;;;;0.49;70.61;96093.34;4977583;28;20211;-76
2023/12/19 06:32:25;;;;;;;66.23;49.53;;;;;;;0.43;71.00;96097.88;4987386;28;20295;-77
2023/12/19 06:34:51;;;;;;;64.87;45.17;;;;;;;0.45;70.98;96095.19;4990670;28;20215;-76
2023/12/19 06:37:16;;;;;;;65.73;47.43;;;;;;;0.64;70.51;96092.69;4971071;28;20251;-80
2023/12/19 06:39:42;;;;;;;65.13;49.30;;;;;;;0.60;70.59;96091.13;4979516;28;20233;-76
2023/12/19 06:42:08;;;;;;;66.47;46.13;;;;;;;0.66;70.91;96090.88;4973858;28;20244;-76
2023/12/19 06:44:33;;;;;;;72.90;48.73;;;;;;;0.81;70.28;96091.97;4976895;28;20218;-75
2023/12/19 06:46:58;;;;;;;60.37;43.70;;;;;;;0.76;70.51;96086.16;4995523;28;20180;-76
2023/12/19 06:49:27;;;;;;;64.77;45.27;;;;;;;0.78;70.33;96095.53;4994276;28;20271;-76
2023/12/19 06:51:53;;;;;;;63.10;45.10;;;;;;;0.78;70.47;96100.72;4992912;28;20223;-76
2023/12/19 06:54:21;;;;;;;68.20;48.43;;;;;;;1.06;70.33;96099.50;4984627;28;20234;-78
2023/12/19 06:56:47;;;;;;;69.90;48.57;;;;;;;0.98;70.26;96094.66;4983922;28;20247;-74
2023/12/19 06:59:13;;;;;;;69.80;47.67;;;;;;;0.99;70.73;96096.34;4987491;28;20311;-72
2023/12/19 07:01:39;;;;;;;67.67;48.03;;;;;;;1.13;70.55;96093.16;4985758;28;20235;-69
2023/12/19 07:04:04;;;;;;;66.93;48.27;;;;;;;1.13;69.98;96094.91;4984546;28;20223;-73
2023/12/19 07:06:30;;;;;;;69.30;49.33;;;;;;;1.21;69.84;96100.59;4988781;28;20238;-70
2023/12/19 07:08:55;;;;;;;68.43;48.57;;;;;;;1.17;69.72;96105.03;4981336;28;20262;-73
2023/12/19 07:11:21;;;;;;;70.33;50.00;;;;;;;1.00;70.21;96100.63;4985951;28;20191;-69
2023/12/19 07:13:47;;;;;;;68.53;51.03;;;;;;;1.35;69.35;96102.56;4987074;28;20194;-75
2023/12/19 07:16:17;;;;;;;74.47;52.07;;;;;;;1.20;69.64;96109.25;4987632;28;20214;-74
2023/12/19 07:18:44;;;;;;;76.50;52.70;;;;;;;1.35;69.36;96112.91;4973282;28;20235;-76
2023/12/19 07:21:25;;;;;;;74.80;50.80;;;;;;;1.43;69.36;96116.00;4967146;28;20227;-76
2023/12/19 07:23:52;;;;;;;74.60;53.47;;;;;;;1.43;68.66;96122.03;4979299;28;20220;-74
2023/12/19 07:26:23;;;;;;;70.60;53.37;;;;;;;1.56;68.85;96111.94;4969417;28;20349;-74
2023/12/19 07:28:50;;;;;;;85.50;60.13;;;;;;;1.53;68.98;96109.50;4987492;28;20186;-73
2023/12/19 07:31:23;;;;;;;83.73;59.60;;;;;;;1.61;68.65;96110.00;4966453;28;20223;-72
2023/12/19 07:33:51;;;;;;;82.77;57.50;;;;;;;1.59;67.70;96090.22;4992502;28;20235;-73
2023/12/19 07:36:17;;;;;;;96.00;58.53;;;;;;;1.68;67.73;96093.22;4992879;28;20242;-74
2023/12/19 07:38:42;;;;;;;90.83;59.23;;;;;;;1.64;68.22;96091.69;4986192;28;20231;-73
2023/12/19 07:41:07;;;;;;;82.33;56.63;;;;;;;1.80;67.72;96093.59;4991346;28;20194;-71
2023/12/19 07:43:33;;;;;;;75.33;56.27;;;;;;;1.88;68.00;96086.28;4988878;28;20250;-73
2023/12/19 07:45:58;;;;;;;81.73;57.93;;;;;;;2.14;66.89;96070.31;4987007;28;20357;-70
2023/12/19 07:48:24;;;;;;;78.27;61.03;;;;;;;1.93;67.83;96068.75;4985020;28;20226;-70
2023/12/19 07:50:50;;;;;;;91.07;62.73;;;;;;;1.86;68.07;96068.19;4980438;28;20229;-81
2023/12/19 07:53:15;;;;;;;79.10;56.93;;;;;;;1.69;69.18;96071.59;4992588;28;20198;-80
2023/12/19 07:55:41;;;;;;;74.97;57.00;;;;;;;1.91;68.84;96065.38;4995978;28;20179;-83
2023/12/19 07:58:07;;;;;;;78.80;59.27;;;;;;;2.08;67.98;96075.75;4990017;28;20227;-82
2023/12/19 08:00:33;;;;;;;81.47;59.37;;;;;;;2.25;67.67;96072.38;4987168;28;20222;-74
2023/12/19 08:02:58;;;;;;;71.43;55.53;;;;;;;2.34;67.67;96065.88;4982437;28;20257;-75
2023/12/19 08:05:24;;;;;;;72.03;53.10;;;;;;;2.37;67.21;96057.94;4982006;28;20250;-79
2023/12/19 08:07:50;;;;;;;70.23;53.00;;;;;;;2.50;67.14;96069.38;4988928;28;20190;-80
2023/12/19 08:10:15;;;;;;;70.17;52.40;;;;;;;2.62;66.92;96063.59;4997102;28;20230;-79
2023/12/19 08:12:41;;;;;;;62.93;49.80;;;;;;;2.70;67.08;96067.53;4991907;28;20267;-80
2023/12/19 08:15:09;;;;;;;67.13;49.57;;;;;;;2.84;66.60;96060.72;4991772;28;20225;-78
2023/12/19 08:17:36;;;;;;;60.03;47.67;;;;;;;2.78;67.30;96060.19;4996495;28;20284;-81
2023/12/19 08:20:03;;;;;;;62.30;49.00;;;;;;;2.60;67.96;96065.41;4989048;28;20179;-80
2023/12/19 08:22:28;;;;;;;61.27;48.63;;;;;;;2.73;67.49;96059.59;4987871;28;20222;-81
2023/12/19 08:24:54;;;;;;;71.00;53.67;;;;;;;2.82;67.17;96053.94;4989074;28;20290;-78
2023/12/19 08:27:22;;;;;;;74.33;49.83;;;;;;;2.80;66.73;96058.34;4984340;28;20266;-72
2023/12/19 08:29:48;;;;;;;58.23;43.17;;;;;;;2.75;65.96;96055.16;4978378;28;20238;-72
2023/12/19 08:32:14;;;;;;;52.17;41.50;;;;;;;2.80;66.30;96058.34;4971979;28;20196;-80
2023/12/19 08:34:41;;;;;;;58.07;42.43;;;;;;;2.82;66.65;96051.34;4991913;28;20225;-70
2023/12/19 08:37:06;;;;;;;55.10;41.40;;;;;;;2.84;65.84;96050.34;4975074;28;20224;-78
2023/12/19 08:39:32;;;;;;;54.00;40.87;;;;;;;3.01;65.53;96039.06;4975126;28;20226;-79
2023/12/19 08:41:59;;;;;;;55.10;39.50;;;;;;;3.09;65.14;96026.50;4980641;28;20232;-75
2023/12/19 08:44:26;;;;;;;56.50;42.10;;;;;;;3.28;64.31;96033.31;4965999;28;20192;-83
2023/12/19 08:46:53;;;;;;;54.67;39.70;;;;;;;3.20;64.27;96017.28;4999700;28;20226;-79
2023/12/19 08:49:19;;;;;;;51.83;39.87;;;;;;;3.21;64.91;96013.78;4992599;28;20219;-79
2023/12/19 08:51:48;;;;;;;52.40;39.23;;;;;;;3.33;64.76;96012.28;4988119;28;20227;-77
2023/12/19 08:54:14;;;;;;;49.00;37.50;;;;;;;3.24;64.29;95998.03;4979111;28;20231;-75
2023/12/19 08:56:43;;;;;;;49.47;38.53;;;;;;;3.42;64.81;96001.38;4974890;28;20254;-75
2023/12/19 08:59:08;;;;;;;49.27;38.33;;;;;;;3.42;64.61;95993.56;4992764;28;20218;-75
2023/12/19 09:01:34;;;;;;;50.97;39.17;;;;;;;3.42;64.71;95997.03;4995256;28;20253;-73
2023/12/19 09:04:02;;;;;;;50.53;37.57;;;;;;;3.38;64.65;95984.28;4989094;28;20222;-79
2023/12/19 09:06:28;;;;;;;49.30;39.30;;;;;;;3.53;64.68;95999.88;4997018;28;20293;-78
2023/12/19 09:08:55;;;;;;;54.63;41.00;;;;;;;3.41;64.98;95987.53;4983843;28;20234;-72
2023/12/19 09:11:20;;;;;;;58.23;42.50;;;;;;;3.47;64.80;95981.97;4966581;28;20211;-72
2023/12/19 09:13:46;;;;;;;68.37;48.67;;;;;;;3.40;65.53;95982.44;4998331;28;20286;-76
2023/12/19 09:16:11;;;;;;;62.50;49.07;;;;;;;3.28;66.23;95989.13;4989269;28;20306;-75
2023/12/19 09:18:37;;;;;;;55.97;41.60;;;;;;;3.43;65.44;95975.28;4990046;28;20249;-75
2023/12/19 09:21:02;;;;;;;50.43;40.40;;;;;;;3.58;65.00;95960.59;4989327;28;20211;-75
2023/12/19 09:23:28;;;;;;;52.03;39.30;;;;;;;3.75;64.76;95970.88;4986976;28;20195;-75
2023/12/19 09:25:53;;;;;;;55.33;39.27;;;;;;;3.77;64.00;95960.41;4991517;28;20259;-76
2023/12/19 09:28:19;;;;;;;55.13;40.80;;;;;;;3.73;64.11;95962.31;4974130;28;20227;-76
2023/12/19 09:30:44;;;;;;;56.40;41.93;;;;;;;3.94;63.48;95957.66;4983564;28;20239;-79
2023/12/19 09:33:10;;;;;;;53.37;39.23;;;;;;;3.91;63.77;95965.66;4997335;28;20231;-79
2023/12/19 09:35:35;;;;;;;52.30;39.57;;;;;;;4.03;63.55;95943.28;4981970;28;20222;-81
2023/12/19 09:38:04;;;;;;;54.03;39.97;;;;;;;4.03;63.07;95964.09;4997386;28;20222;-76
2023/12/19 09:40:30;;;;;;;56.23;42.60;;;;;;;4.14;63.32;95958.25;4961115;28;20318;-73
2023/12/19 09:42:57;;;;;;;60.87;41.70;;;;;;;4.05;63.13;95954.44;4987273;28;20223;-72
2023/12/19 09:45:23;;;;;;;57.07;41.50;;;;;;;4.16;63.02;95959.84;4989073;28;20319;-73
2023/12/19 09:47:59;;;;;;;57.30;41.87;;;;;;;4.31;63.39;95955.53;4990411;28;20372;-73
2023/12/19 09:50:27;;;;;;;54.20;42.57;;;;;;;4.44;62.86;95950.44;4986555;28;20178;-74
2023/12/19 09:52:57;;;;;;;57.70;44.07;;;;;;;4.41;62.40;95950.59;4994317;28;20191;-76
2023/12/19 09:55:30;;;;;;;61.03;44.83;;;;;;;4.31;62.63;95945.13;4971781;28;20342;-80
2023/12/19 09:57:57;;;;;;;55.77;42.83;;;;;;;4.58;61.86;95934.81;4979472;28;20223;-78
2023/12/19 10:00:25;;;;;;;54.53;44.90;;;;;;;4.60;61.65;95937.34;4980850;28;20219;-80
2023/12/19 10:02:52;;;;;;;56.70;42.43;;;;;;;4.49;62.50;95943.19;4976812;28;20263;-74
2023/12/19 10:05:18;;;;;;;59.80;42.57;;;;;;;4.55;62.96;95931.56;4969872;28;20232;-75
2023/12/19 10:07:44;;;;;;;56.30;40.40;;;;;;;4.68;63.05;95929.88;4985749;28;20194;-77
2023/12/19 10:10:11;;;;;;;56.00;43.83;;;;;;;4.61;62.93;95920.75;4984388;28;20219;-75
2023/12/19 10:12:48;;;;;;;55.73;45.20;;;;;;;4.85;62.21;95921.84;4987749;28;20223;-72
2023/12/19 10:15:16;;;;;;;56.47;43.50;;;;;;;5.00;62.04;95916.66;4988715;28;20220;-73
2023/12/19 10:18:04;;;;;;;62.17;44.83;;;;;;;5.16;62.19;95921.72;4975633;28;20228;-74
2023/12/19 10:20:30;;;;;;;67.80;48.67;;;;;;;5.11;62.09;95909.00;4993111;28;20252;-82
2023/12/19 10:23:02;;;;;;;63.87;48.90;;;;;;;5.12;61.94;95897.63;4992957;28;20266;-71
2023/12/19 10:25:27;;;;;;;61.80;46.47;;;;;;;5.19;62.37;95906.72;4986111;28;20235;-73
2023/12/19 10:28:37;;;;;;;65.93;46.70;;;;;;;5.29;61.50;95901.75;4987748;28;20262;-72
2023/12/19 10:31:11;;;;;;;57.93;44.43;;;;;;;5.20;61.95;95884.94;4919188;29;20273;-73
2023/12/19 10:33:54;;;;;;;61.20;44.77;;;;;;;5.24;61.96;95878.59;4929189;29;20233;-73
2023/12/19 10:36:27;;;;;;;58.90;44.23;;;;;;;5.45;62.32;95875.53;4916248;29;20374;-73
2023/12/19 10:38:54;;;;;;;60.13;44.17;;;;;;;5.38;61.45;95866.44;4924907;29;20233;-72
2023/12/19 10:41:25;;;;;;;61.60;45.07;;;;;;;5.57;61.27;95871.31;4924659;29;20202;-73
2023/12/19 10:43:55;;;;;;;57.30;45.77;;;;;;;5.68;61.44;95871.44;4918477;29;20194;-74
2023/12/19 10:46:25;;;;;;;62.40;46.87;;;;;;;5.85;60.85;95870.31;4911370;29;20320;-72
2023/12/19 10:48:56;;;;;;;62.30;44.60;;;;;;;5.99;60.94;95848.53;4921202;29;20221;-72
2023/12/19 10:51:46;;;;;;;54.60;41.63;;;;;;;6.46;60.18;95841.84;4905727;29;20308;-74
2023/12/19 10:54:14;;;;;;;57.67;43.50;;;;;;;6.46;59.20;95832.22;4904601;29;20328;-72
2023/12/19 10:57:09;;;;;;;54.97;43.43;;;;;;;6.70;58.84;95828.84;4926499;29;20283;-74
2023/12/19 10:59:47;;;;;;;52.07;39.93;;;;;;;6.58;59.36;95826.16;4928662;29;20307;-73
2023/12/19 11:02:30;;;;;;;57.07;42.30;;;;;;;6.53;59.44;95811.75;4915269;29;20231;-76
2023/12/19 11:05:11;;;;;;;53.27;41.10;;;;;;;6.51;59.40;95811.00;4929019;29;20321;-74
2023/12/19 11:07:37;;;;;;;50.63;41.87;;;;;;;6.56;60.16;95816.75;4980345;28;20237;-75
2023/12/19 11:10:05;;;;;;;56.37;40.87;;;;;;;6.49;60.07;95800.66;4985975;28;20274;-75
2023/12/19 11:12:32;;;;;;;53.77;40.57;;;;;;;6.57;60.37;95790.50;4987528;28;20223;-78
2023/12/19 11:14:58;;;;;;;51.93;39.73;;;;;;;6.57;60.04;95785.25;4994836;28;20218;-80
2023/12/19 11:17:39;;;;;;;44.13;34.87;;;;;;;6.53;59.76;95775.16;4984194;28;20198;-74
2023/12/19 11:20:17;;;;;;;43.87;34.77;;;;;;;6.64;59.47;95777.84;4991381;28;20184;-75
2023/12/19 11:23:40;;;;;;;43.50;34.17;;;;;;;6.78;60.40;95779.47;4986822;28;20219;-76